Terminal Aerodrome Forecast
Issued by NWS

Current Version | Previous Version | Text Only | Print | Product List | Glossary On
Versions: 1 2 3 4 5 6 7 8 9 10 11 12 13 14 15 16 17
000
FTUS46 KEKA 252341
TAFUKI
TAF
KUKI 252341Z 2600/2624 15012G17KT P6SM SCT030
     FM260200 14009KT P6SM SCT030
     FM260400 18004KT P6SM FEW050 SCT250
     FM261100 VRB03KT P6SM SCT009 BKN012
     FM261500 13007KT P6SM SCT012=

USA.gov is the U.S. government's official web portal to all federal, state and local government web resources and services.